Alviso, California
Current Conditions -  °F | °C
As of 8:56 AM on Wednesday 26 Nov 2014 (Local Time) from KNUQ Reporting Station
Clear Clear  
Wind Chill: 12°   Ceiling: Unl
Heat Index: 12°   Visibility: 7mi
Dew Point:   Wind: 3mph
Humidity: 80%   Direction: 230°SW
Pressure: 30.33"   Gusts: NA
Location:  37.43°N, 121.97°W
Report Text: KNUQ 261656Z 23003KT 7SM CLR 12/08 A3033 RMK AO2 SLP272 T01170083
Loading
Personal Weather Stations






























Interactive Weather Map New forecast layout! Learn more

10-Day Weather Forecast

Advertisements
Track Severe Weather on mobile